Time;durP1;ratioP1;P1;durP2;ratioP2;P2;SDS_P1;SDS_P2;PMS_P1;PMS_P2;Temp;Humidity;BMP_temperature;BMP_pressure;BME280_temperature;BME280_humidity;BME280_pressure;Samples;Min_cycle;Max_cycle;Signal;HPM_P1;HPM_P2
2023/06/30 00:01:39;;;;;;;6.10;4.05;;;;;;;;;;5048783;28;20033;-69
2023/06/30 00:04:06;;;;;;;9.93;4.10;;;;;;;;;;5049366;28;20036;-69
2023/06/30 00:06:32;;;;;;;5.60;3.95;;;;;;;;;;5048843;28;20116;-70
2023/06/30 00:08:58;;;;;;;9.18;4.18;;;;;;;;;;5049175;28;20084;-70
2023/06/30 00:11:25;;;;;;;7.95;4.07;;;;;;;;;;5048552;28;20043;-69
2023/06/30 00:13:52;;;;;;;7.22;3.85;;;;;;;;;;5048969;28;20124;-69
2023/06/30 00:16:19;;;;;;;5.65;4.28;;;;;;;;;;5049176;28;20479;-68
2023/06/30 00:18:44;;;;;;;6.60;4.35;;;;;;;;;;5054528;28;20059;-69
2023/06/30 00:21:10;;;;;;;6.03;3.67;;;;;;;;;;5059750;28;20021;-69
2023/06/30 00:23:36;;;;;;;7.40;4.25;;;;;;;;;;5070049;28;20115;-69
2023/06/30 00:26:03;;;;;;;5.40;4.03;;;;;;;;;;5054422;28;20071;-69
2023/06/30 00:28:29;;;;;;;5.90;4.00;;;;;;;;;;5059342;28;20046;-69
2023/06/30 00:30:54;;;;;;;8.45;4.15;;;;;;;;;;5083900;28;20081;-70
2023/06/30 00:33:20;;;;;;;6.88;4.00;;;;;;;;;;5056144;28;20078;-69
2023/06/30 00:35:46;;;;;;;8.05;4.25;;;;;;;;;;5048774;28;20017;-69
2023/06/30 00:38:12;;;;;;;5.90;4.05;;;;;;;;;;5048514;28;20442;-69
2023/06/30 00:40:38;;;;;;;7.45;4.47;;;;;;;;;;5030932;28;20120;-69
2023/06/30 00:43:04;;;;;;;5.63;4.00;;;;;;;;;;5054653;28;20025;-69
2023/06/30 00:45:29;;;;;;;6.60;4.25;;;;;;;;;;5060992;28;20070;-69
2023/06/30 00:47:57;;;;;;;7.95;4.13;;;;;;;;;;5061195;28;20025;-69
2023/06/30 00:50:22;;;;;;;12.77;4.50;;;;;;;;;;5057787;28;20040;-70
2023/06/30 00:52:49;;;;;;;8.18;4.80;;;;;;;;;;5073380;28;20033;-69
2023/06/30 00:55:16;;;;;;;9.80;4.40;;;;;;;;;;5061464;28;20052;-69
2023/06/30 00:57:43;;;;;;;6.07;3.95;;;;;;;;;;5071418;28;20071;-69
2023/06/30 01:00:11;;;;;;;7.28;4.18;;;;;;;;;;5068828;28;20792;-70
2023/06/30 01:02:48;;;;;;;5.68;3.78;;;;;;;;;;5056049;28;20037;-69
2023/06/30 01:05:25;;;;;;;9.88;4.60;;;;;;;;;;5060533;28;20436;-69
2023/06/30 01:08:02;;;;;;;8.88;4.53;;;;;;;;;;5081075;28;20037;-69
2023/06/30 01:10:31;;;;;;;8.82;5.07;;;;;;;;;;5065339;28;20036;-69
2023/06/30 01:12:57;;;;;;;5.97;4.47;;;;;;;;;;5058095;28;20036;-69
2023/06/30 01:15:24;;;;;;;7.20;4.97;;;;;;;;;;5057411;28;20021;-69
2023/06/30 01:17:59;;;;;;;10.60;5.05;;;;;;;;;;5085431;28;20028;-70
2023/06/30 01:20:33;;;;;;;12.45;5.18;;;;;;;;;;5081076;28;20640;-70
2023/06/30 01:23:23;;;;;;;9.85;5.05;;;;;;;;;;5049905;28;20112;-69
2023/06/30 01:25:49;;;;;;;10.40;5.20;;;;;;;;;;5062036;28;20032;-69
2023/06/30 01:28:16;;;;;;;11.75;5.05;;;;;;;;;;5065218;28;20025;-69
2023/06/30 01:30:42;;;;;;;9.80;5.03;;;;;;;;;;5061731;28;20033;-69
2023/06/30 01:33:08;;;;;;;11.30;5.05;;;;;;;;;;5060922;28;20029;-69
2023/06/30 01:35:34;;;;;;;9.00;4.88;;;;;;;;;;5062851;28;20036;-69
2023/06/30 01:38:02;;;;;;;6.68;4.43;;;;;;;;;;5055831;28;20032;-70
2023/06/30 01:40:28;;;;;;;6.72;4.43;;;;;;;;;;5062833;28;20033;-69
2023/06/30 01:42:56;;;;;;;11.30;5.00;;;;;;;;;;5052514;28;20076;-69
2023/06/30 01:45:24;;;;;;;7.45;4.10;;;;;;;;;;5051021;28;20541;-69
2023/06/30 01:47:50;;;;;;;6.65;4.55;;;;;;;;;;5059836;28;20025;-69
2023/06/30 01:50:18;;;;;;;7.18;4.60;;;;;;;;;;5053355;28;20120;-69
2023/06/30 01:52:44;;;;;;;8.00;4.53;;;;;;;;;;5068194;28;20032;-69
2023/06/30 01:55:10;;;;;;;8.13;4.40;;;;;;;;;;5050830;28;20087;-69
2023/06/30 01:57:35;;;;;;;6.85;4.55;;;;;;;;;;5060454;28;20020;-69
2023/06/30 02:00:03;;;;;;;7.00;4.70;;;;;;;;;;5062140;28;20042;-69
2023/06/30 02:02:38;;;;;;;8.88;4.60;;;;;;;;;;5071686;28;20032;-69
2023/06/30 02:05:06;;;;;;;10.98;4.53;;;;;;;;;;5070192;28;20502;-70
2023/06/30 02:07:32;;;;;;;7.40;5.18;;;;;;;;;;5070140;28;20036;-69
2023/06/30 02:09:58;;;;;;;12.77;4.82;;;;;;;;;;5058274;28;20086;-69
2023/06/30 02:12:24;;;;;;;7.18;4.30;;;;;;;;;;5055275;28;20513;-69
2023/06/30 02:14:49;;;;;;;15.52;5.22;;;;;;;;;;5050544;28;21273;-70
2023/06/30 02:17:15;;;;;;;10.27;4.68;;;;;;;;;;5051823;28;20020;-70
2023/06/30 02:19:44;;;;;;;10.00;5.25;;;;;;;;;;5059455;28;20067;-70
2023/06/30 02:22:09;;;;;;;7.53;4.68;;;;;;;;;;5051716;28;20086;-69
2023/06/30 02:24:35;;;;;;;11.10;5.20;;;;;;;;;;5058504;28;20036;-68
2023/06/30 02:27:01;;;;;;;7.53;4.45;;;;;;;;;;5074329;28;20048;-69
2023/06/30 02:29:31;;;;;;;8.85;4.47;;;;;;;;;;5059127;28;20037;-69
2023/06/30 02:31:56;;;;;;;6.68;4.40;;;;;;;;;;5054522;28;20067;-69
2023/06/30 02:34:23;;;;;;;7.32;4.65;;;;;;;;;;5051022;28;20060;-69
2023/06/30 02:36:49;;;;;;;8.48;4.72;;;;;;;;;;5049703;28;20170;-69
2023/06/30 02:39:14;;;;;;;7.45;4.00;;;;;;;;;;5050552;28;20119;-69
2023/06/30 02:41:40;;;;;;;8.90;4.40;;;;;;;;;;5050441;28;20029;-69
2023/06/30 02:44:06;;;;;;;6.55;4.10;;;;;;;;;;5049356;28;20029;-69
2023/06/30 02:46:32;;;;;;;10.95;4.70;;;;;;;;;;5065660;28;20535;-69
2023/06/30 02:48:58;;;;;;;6.47;5.00;;;;;;;;;;5065728;28;20040;-69
2023/06/30 02:51:23;;;;;;;10.52;4.70;;;;;;;;;;5059377;28;20024;-69
2023/06/30 03:01:58;;;;;;;6.25;4.38;;;;;;;;;;5048302;28;20036;-71
2023/06/30 03:06:58;;;;;;;11.77;5.50;;;;;;;;;;4991540;28;20041;-70
2023/06/30 03:09:24;;;;;;;13.32;6.82;;;;;;;;;;5000907;28;20089;-70
2023/06/30 03:11:50;;;;;;;10.57;5.35;;;;;;;;;;4998931;28;20053;-69
2023/06/30 03:14:19;;;;;;;7.38;5.38;;;;;;;;;;4988243;28;20038;-69
2023/06/30 03:16:45;;;;;;;10.02;5.25;;;;;;;;;;4985603;28;20398;-70
2023/06/30 03:19:14;;;;;;;9.35;5.20;;;;;;;;;;5008787;28;20041;-70
2023/06/30 03:21:39;;;;;;;8.35;5.45;;;;;;;;;;4982050;28;20038;-70
2023/06/30 03:24:05;;;;;;;7.85;5.75;;;;;;;;;;4988336;28;20112;-70
2023/06/30 03:26:31;;;;;;;10.27;5.07;;;;;;;;;;4990833;28;20073;-70
2023/06/30 03:28:57;;;;;;;10.35;5.90;;;;;;;;;;4989623;28;20584;-69
2023/06/30 03:31:23;;;;;;;8.50;5.32;;;;;;;;;;5006142;28;20029;-70
2023/06/30 03:33:50;;;;;;;8.23;5.10;;;;;;;;;;4997173;28;20080;-69
2023/06/30 03:36:15;;;;;;;14.63;4.78;;;;;;;;;;4994011;28;20488;-70
2023/06/30 03:38:41;;;;;;;9.73;5.25;;;;;;;;;;4995726;28;20450;-70
2023/06/30 03:41:07;;;;;;;12.43;6.15;;;;;;;;;;4997259;28;20113;-69
2023/06/30 03:43:33;;;;;;;15.57;6.45;;;;;;;;;;4981057;28;20046;-70
2023/06/30 03:46:01;;;;;;;12.95;5.70;;;;;;;;;;5002182;28;20021;-70
2023/06/30 03:48:27;;;;;;;11.45;5.50;;;;;;;;;;4977310;28;20061;-70
2023/06/30 03:50:54;;;;;;;11.15;5.20;;;;;;;;;;4986034;28;20069;-70
2023/06/30 03:53:21;;;;;;;10.25;5.53;;;;;;;;;;4977590;28;20022;-70
2023/06/30 03:55:47;;;;;;;12.48;5.72;;;;;;;;;;4998563;28;20033;-69
2023/06/30 03:58:13;;;;;;;7.57;5.45;;;;;;;;;;4990823;28;20038;-70
2023/06/30 04:00:39;;;;;;;8.02;5.25;;;;;;;;;;4974320;28;20161;-70
2023/06/30 04:03:05;;;;;;;8.90;4.68;;;;;;;;;;4992330;28;20451;-70
2023/06/30 04:09:17;;;;;;;9.77;5.30;;;;;;;;;;4989509;28;20085;-69
2023/06/30 04:11:43;;;;;;;13.45;5.22;;;;;;;;;;4990296;28;20038;-70
2023/06/30 04:14:09;;;;;;;13.85;6.05;;;;;;;;;;4991623;28;20050;-71
2023/06/30 04:16:34;;;;;;;7.72;5.72;;;;;;;;;;4984367;28;20125;-69
2023/06/30 04:19:00;;;;;;;8.40;5.00;;;;;;;;;;4993339;28;20039;-70
2023/06/30 04:21:26;;;;;;;10.85;5.63;;;;;;;;;;4994625;28;20042;-70
2023/06/30 04:23:52;;;;;;;12.43;5.40;;;;;;;;;;4994795;28;20471;-69
2023/06/30 04:26:17;;;;;;;14.43;6.05;;;;;;;;;;4994569;28;20029;-69
2023/06/30 04:28:44;;;;;;;9.23;4.95;;;;;;;;;;4994232;28;20471;-69
2023/06/30 04:31:10;;;;;;;8.63;4.97;;;;;;;;;;4994839;28;20049;-69
2023/06/30 04:33:37;;;;;;;8.43;5.00;;;;;;;;;;4992625;28;20018;-69
2023/06/30 04:36:06;;;;;;;11.45;4.95;;;;;;;;;;4992200;28;20073;-69
2023/06/30 04:38:33;;;;;;;8.07;5.07;;;;;;;;;;4990496;28;20097;-70
2023/06/30 04:44:46;;;;;;;10.57;5.45;;;;;;;;;;4986551;28;20122;-70
2023/06/30 04:47:11;;;;;;;9.43;5.40;;;;;;;;;;4994323;28;20050;-69
2023/06/30 04:49:37;;;;;;;11.10;5.53;;;;;;;;;;4994728;28;20022;-69
2023/06/30 04:52:03;;;;;;;10.85;5.90;;;;;;;;;;4994448;28;20034;-70
2023/06/30 04:54:30;;;;;;;9.55;5.50;;;;;;;;;;4994724;28;20081;-69
2023/06/30 04:56:56;;;;;;;8.65;4.55;;;;;;;;;;4995177;28;20026;-69
2023/06/30 04:59:23;;;;;;;10.52;5.03;;;;;;;;;;4993941;28;20039;-69
2023/06/30 05:01:49;;;;;;;7.35;4.70;;;;;;;;;;4994211;28;20502;-70
2023/06/30 05:04:16;;;;;;;10.27;4.80;;;;;;;;;;4994219;28;20443;-70
2023/06/30 05:06:42;;;;;;;10.63;5.03;;;;;;;;;;4994214;28;20060;-70
2023/06/30 05:09:07;;;;;;;7.18;5.30;;;;;;;;;;4993559;28;20062;-70
2023/06/30 05:11:33;;;;;;;12.13;4.80;;;;;;;;;;4993178;28;20523;-69
2023/06/30 05:13:59;;;;;;;9.15;5.60;;;;;;;;;;4994691;28;20065;-69
2023/06/30 05:16:24;;;;;;;7.57;4.60;;;;;;;;;;4993247;28;20507;-69
2023/06/30 05:18:50;;;;;;;10.32;4.95;;;;;;;;;;4994018;28;20103;-69
2023/06/30 05:21:16;;;;;;;9.05;5.28;;;;;;;;;;4994462;28;20427;-69
2023/06/30 05:23:41;;;;;;;10.10;4.82;;;;;;;;;;4993901;28;20534;-69
2023/06/30 05:26:10;;;;;;;7.35;4.63;;;;;;;;;;4994017;28;20038;-70
2023/06/30 05:28:36;;;;;;;7.43;4.97;;;;;;;;;;4994280;28;20041;-70
2023/06/30 05:31:03;;;;;;;8.30;5.38;;;;;;;;;;4994012;28;20045;-70
2023/06/30 05:33:28;;;;;;;11.10;5.43;;;;;;;;;;4993918;28;20156;-70
2023/06/30 05:35:54;;;;;;;8.48;4.63;;;;;;;;;;4993992;28;20498;-71
2023/06/30 05:38:19;;;;;;;14.55;5.28;;;;;;;;;;4993885;28;20042;-69
2023/06/30 05:40:45;;;;;;;7.93;4.93;;;;;;;;;;4993701;28;20046;-71
2023/06/30 05:43:11;;;;;;;10.90;5.38;;;;;;;;;;4993679;28;20027;-70
2023/06/30 05:45:37;;;;;;;11.18;5.40;;;;;;;;;;4993652;28;20085;-70
2023/06/30 05:48:03;;;;;;;9.23;5.32;;;;;;;;;;4993637;28;20037;-69
2023/06/30 05:50:29;;;;;;;14.23;5.18;;;;;;;;;;4993486;28;20469;-70
2023/06/30 05:52:55;;;;;;;8.77;4.90;;;;;;;;;;4993922;28;20026;-70
2023/06/30 05:55:21;;;;;;;6.63;4.85;;;;;;;;;;4993581;28;20030;-70
2023/06/30 05:57:47;;;;;;;6.65;4.57;;;;;;;;;;4992450;28;20018;-70
2023/06/30 06:00:13;;;;;;;6.88;4.70;;;;;;;;;;4993210;28;20046;-69
2023/06/30 06:02:41;;;;;;;10.35;4.88;;;;;;;;;;4992777;28;20113;-70
2023/06/30 06:05:07;;;;;;;12.07;4.75;;;;;;;;;;4992642;28;20125;-69
2023/06/30 06:07:32;;;;;;;8.30;4.38;;;;;;;;;;4992386;28;20490;-70
2023/06/30 06:09:58;;;;;;;10.10;5.40;;;;;;;;;;4993195;28;20037;-69
2023/06/30 06:12:24;;;;;;;13.13;5.22;;;;;;;;;;4992753;28;20022;-69
2023/06/30 06:14:50;;;;;;;9.82;4.22;;;;;;;;;;4993106;28;20385;-69
2023/06/30 06:17:15;;;;;;;8.63;4.57;;;;;;;;;;4992829;28;20018;-70
2023/06/30 06:19:41;;;;;;;7.35;5.22;;;;;;;;;;4992573;28;20038;-70
2023/06/30 06:22:07;;;;;;;6.88;4.63;;;;;;;;;;4992603;28;20041;-69
2023/06/30 06:24:33;;;;;;;7.75;5.05;;;;;;;;;;4993278;28;20065;-69
2023/06/30 06:26:58;;;;;;;6.10;4.93;;;;;;;;;;5000087;28;20049;-69
2023/06/30 06:29:24;;;;;;;8.32;4.80;;;;;;;;;;4992664;28;20392;-70
2023/06/30 06:31:50;;;;;;;7.30;4.55;;;;;;;;;;4992151;28;20026;-70
2023/06/30 06:34:21;;;;;;;8.88;4.70;;;;;;;;;;4992927;28;20041;-70
2023/06/30 06:36:47;;;;;;;8.15;5.13;;;;;;;;;;4992433;28;20767;-69
2023/06/30 06:39:14;;;;;;;9.90;5.45;;;;;;;;;;4991116;28;20030;-70
2023/06/30 06:41:40;;;;;;;8.50;4.60;;;;;;;;;;4991629;28;20034;-70
2023/06/30 06:44:06;;;;;;;13.13;6.50;;;;;;;;;;4974422;28;20033;-70
2023/06/30 06:46:32;;;;;;;7.20;4.82;;;;;;;;;;4992032;28;20034;-70
2023/06/30 06:48:58;;;;;;;12.77;4.90;;;;;;;;;;4990165;28;20033;-70
2023/06/30 06:51:24;;;;;;;9.82;5.07;;;;;;;;;;4984386;28;20117;-71
2023/06/30 06:53:52;;;;;;;6.82;4.60;;;;;;;;;;4992445;28;20109;-72
2023/06/30 06:56:18;;;;;;;7.47;4.80;;;;;;;;;;4992244;28;20026;-72
2023/06/30 06:58:45;;;;;;;11.00;5.03;;;;;;;;;;4991996;28;20050;-73
2023/06/30 07:01:12;;;;;;;7.05;4.47;;;;;;;;;;4992298;28;20030;-72
2023/06/30 07:03:38;;;;;;;6.25;4.63;;;;;;;;;;4987444;28;20023;-72
2023/06/30 07:06:06;;;;;;;7.13;4.30;;;;;;;;;;4988948;28;20034;-72
2023/06/30 07:08:35;;;;;;;7.25;4.50;;;;;;;;;;4989441;28;20100;-73
2023/06/30 07:14:48;;;;;;;11.38;5.25;;;;;;;;;;4991239;28;20069;-72
2023/06/30 07:17:15;;;;;;;8.40;4.90;;;;;;;;;;4991626;28;20062;-72
2023/06/30 07:19:42;;;;;;;11.60;4.88;;;;;;;;;;4991459;28;20026;-71
2023/06/30 07:22:10;;;;;;;11.55;4.93;;;;;;;;;;4989942;28;20435;-72
2023/06/30 07:24:35;;;;;;;7.40;4.55;;;;;;;;;;4990404;28;20034;-71
2023/06/30 07:27:02;;;;;;;13.73;5.20;;;;;;;;;;4979900;28;20037;-72
2023/06/30 07:29:27;;;;;;;9.23;5.25;;;;;;;;;;4988069;28;20106;-71
2023/06/30 07:31:53;;;;;;;11.07;5.30;;;;;;;;;;4984951;28;20519;-70
2023/06/30 07:34:19;;;;;;;14.48;5.00;;;;;;;;;;4988796;28;20096;-70
2023/06/30 07:36:47;;;;;;;7.90;5.32;;;;;;;;;;4985871;28;20101;-72
2023/06/30 07:39:12;;;;;;;10.40;5.18;;;;;;;;;;4983479;28;20030;-71
2023/06/30 07:41:38;;;;;;;10.68;5.13;;;;;;;;;;4983728;28;20395;-72
2023/06/30 07:44:04;;;;;;;11.10;5.10;;;;;;;;;;4982475;28;20105;-71
2023/06/30 07:46:30;;;;;;;12.10;5.20;;;;;;;;;;4992237;28;20054;-71
2023/06/30 07:48:56;;;;;;;7.20;4.65;;;;;;;;;;4991758;28;20037;-72
2023/06/30 07:51:24;;;;;;;8.75;4.32;;;;;;;;;;4991689;28;20034;-72
2023/06/30 07:53:49;;;;;;;8.60;4.68;;;;;;;;;;4994426;28;20033;-70
2023/06/30 07:56:15;;;;;;;8.18;4.28;;;;;;;;;;4994675;28;20034;-71
2023/06/30 07:58:40;;;;;;;7.25;4.13;;;;;;;;;;4995921;28;20404;-71
2023/06/30 08:01:06;;;;;;;12.35;9.57;;;;;;;;;;4995061;28;20415;-71
2023/06/30 08:03:33;;;;;;;9.45;4.80;;;;;;;;;;4995514;28;20450;-71
2023/06/30 08:05:59;;;;;;;6.72;4.60;;;;;;;;;;4995290;28;20156;-71
2023/06/30 08:08:25;;;;;;;9.38;4.82;;;;;;;;;;4995531;28;20030;-71
2023/06/30 08:10:51;;;;;;;8.23;4.55;;;;;;;;;;4995311;28;20037;-72
2023/06/30 08:13:17;;;;;;;13.43;5.97;;;;;;;;;;4995237;28;20030;-72
2023/06/30 08:15:42;;;;;;;8.23;4.20;;;;;;;;;;4993474;28;20125;-72
2023/06/30 08:18:11;;;;;;;7.50;3.67;;;;;;;;;;4995030;28;20444;-71
2023/06/30 08:20:37;;;;;;;5.85;4.10;;;;;;;;;;5003808;28;20533;-71
2023/06/30 08:23:02;;;;;;;6.38;3.28;;;;;;;;;;5014915;28;20026;-71
2023/06/30 08:25:28;;;;;;;4.20;3.30;;;;;;;;;;5003792;28;20407;-71
2023/06/30 08:27:54;;;;;;;6.20;3.58;;;;;;;;;;4994654;28;20034;-71
2023/06/30 08:30:20;;;;;;;6.03;3.70;;;;;;;;;;4993482;28;20088;-71
2023/06/30 08:32:45;;;;;;;5.95;3.60;;;;;;;;;;5013830;28;20133;-71
2023/06/30 08:35:11;;;;;;;7.07;3.83;;;;;;;;;;5014355;28;20038;-72
2023/06/30 08:37:38;;;;;;;6.55;3.97;;;;;;;;;;5009679;28;20022;-71
2023/06/30 08:40:05;;;;;;;4.72;3.70;;;;;;;;;;4994352;28;20038;-71
2023/06/30 08:42:33;;;;;;;5.50;3.45;;;;;;;;;;4994659;28;20073;-71
2023/06/30 08:44:59;;;;;;;6.00;4.00;;;;;;;;;;4994301;28;20329;-72
2023/06/30 08:47:28;;;;;;;7.35;3.80;;;;;;;;;;4994569;28;20034;-73
2023/06/30 08:49:55;;;;;;;3.75;2.97;;;;;;;;;;4994299;28;20038;-71
2023/06/30 08:52:22;;;;;;;6.07;3.30;;;;;;;;;;4992764;28;20037;-72
2023/06/30 08:54:47;;;;;;;7.55;3.58;;;;;;;;;;4993542;28;20037;-72
2023/06/30 08:57:15;;;;;;;6.05;3.58;;;;;;;;;;4994089;28;20022;-73
2023/06/30 08:59:44;;;;;;;7.32;3.50;;;;;;;;;;4993892;28;20053;-71
2023/06/30 09:02:13;;;;;;;6.15;3.45;;;;;;;;;;4993071;28;20018;-71
2023/06/30 09:04:42;;;;;;;5.50;3.80;;;;;;;;;;4992924;28;20492;-73
2023/06/30 09:07:17;;;;;;;6.15;4.53;;;;;;;;;;4993700;28;20030;-71
2023/06/30 09:09:45;;;;;;;6.20;3.20;;;;;;;;;;4993810;28;20105;-73
2023/06/30 09:12:11;;;;;;;6.28;3.35;;;;;;;;;;4994020;28;20112;-72
2023/06/30 09:14:43;;;;;;;7.38;4.00;;;;;;;;;;4994045;28;20042;-71
2023/06/30 09:17:09;;;;;;;9.60;4.05;;;;;;;;;;4994212;28;20057;-72
2023/06/30 09:19:35;;;;;;;5.13;3.17;;;;;;;;;;4993998;28;20531;-71
2023/06/30 09:22:02;;;;;;;5.60;3.67;;;;;;;;;;4993330;28;20502;-72
2023/06/30 09:24:27;;;;;;;6.35;3.60;;;;;;;;;;4992559;28;20026;-72
2023/06/30 09:26:53;;;;;;;6.93;3.53;;;;;;;;;;4993239;28;20499;-72
2023/06/30 09:29:23;;;;;;;4.90;3.53;;;;;;;;;;4993980;28;20096;-72
2023/06/30 09:31:51;;;;;;;4.90;3.33;;;;;;;;;;4993669;28;20072;-72
2023/06/30 09:34:19;;;;;;;5.22;3.13;;;;;;;;;;4992788;28;20030;-70
2023/06/30 09:36:49;;;;;;;6.28;3.70;;;;;;;;;;4993771;28;20612;-73
2023/06/30 09:39:15;;;;;;;6.82;3.25;;;;;;;;;;4991809;28;20557;-72
2023/06/30 09:41:45;;;;;;;4.68;3.10;;;;;;;;;;4990611;28;20201;-73
2023/06/30 09:44:13;;;;;;;5.60;3.40;;;;;;;;;;4993771;28;20110;-73
2023/06/30 09:53:53;;;;;;;8.60;3.80;;;;;;;;;;4984314;28;20069;-72
2023/06/30 09:56:23;;;;;;;6.47;3.95;;;;;;;;;;4987514;28;20499;-72
2023/06/30 09:58:56;;;;;;;5.22;3.72;;;;;;;;;;4988033;28;20041;-72
2023/06/30 10:01:23;;;;;;;6.82;3.80;;;;;;;;;;4990343;28;20128;-71
2023/06/30 10:03:55;;;;;;;5.38;3.20;;;;;;;;;;4983976;28;20207;-72
2023/06/30 10:06:22;;;;;;;7.40;4.17;;;;;;;;;;4986839;28;20041;-72
2023/06/30 10:08:50;;;;;;;4.45;3.67;;;;;;;;;;4983935;28;20260;-70
2023/06/30 10:11:18;;;;;;;5.15;3.92;;;;;;;;;;4992287;28;20038;-71
2023/06/30 10:13:46;;;;;;;5.63;3.65;;;;;;;;;;4991878;28;20041;-70
2023/06/30 10:16:12;;;;;;;5.82;4.18;;;;;;;;;;4991760;28;20033;-72
2023/06/30 10:18:43;;;;;;;6.75;4.05;;;;;;;;;;4973534;28;20173;-72
2023/06/30 10:21:08;;;;;;;7.30;4.00;;;;;;;;;;4992511;28;20456;-71
2023/06/30 10:23:36;;;;;;;6.80;4.13;;;;;;;;;;4993514;28;20033;-72
2023/06/30 10:26:04;;;;;;;7.70;4.45;;;;;;;;;;4991746;28;20023;-71
2023/06/30 10:28:31;;;;;;;5.57;4.20;;;;;;;;;;4992803;28;20041;-72
2023/06/30 10:30:57;;;;;;;6.63;3.63;;;;;;;;;;4993030;28;20510;-71
2023/06/30 10:33:22;;;;;;;9.50;4.40;;;;;;;;;;4992682;28;20042;-72
2023/06/30 10:35:49;;;;;;;7.88;4.53;;;;;;;;;;4992610;28;20049;-71
2023/06/30 10:38:15;;;;;;;5.68;3.85;;;;;;;;;;4992899;28;20022;-72
2023/06/30 10:40:41;;;;;;;7.03;4.88;;;;;;;;;;4991966;28;20038;-72
2023/06/30 10:43:06;;;;;;;7.35;4.65;;;;;;;;;;4992537;28;20524;-71
2023/06/30 10:46:07;;;;;;;6.68;4.60;;;;;;;;;;4992446;28;20113;-71
2023/06/30 10:48:33;;;;;;;6.90;4.10;;;;;;;;;;4992248;28;20050;-71
2023/06/30 10:50:59;;;;;;;9.52;4.43;;;;;;;;;;4992369;28;20085;-72
2023/06/30 10:53:26;;;;;;;7.97;4.68;;;;;;;;;;4992065;28;20088;-72
2023/06/30 10:55:56;;;;;;;5.88;4.25;;;;;;;;;;4991487;28;20097;-72
2023/06/30 10:58:26;;;;;;;7.97;4.75;;;;;;;;;;4992025;28;20092;-71
2023/06/30 11:01:06;;;;;;;9.52;6.22;;;;;;;;;;4990239;28;20038;-70
2023/06/30 11:03:56;;;;;;;6.95;4.30;;;;;;;;;;4991031;28;20026;-71
2023/06/30 11:06:22;;;;;;;7.90;4.32;;;;;;;;;;4991201;28;20110;-71
2023/06/30 11:09:09;;;;;;;6.85;4.47;;;;;;;;;;4991911;28;20073;-71
2023/06/30 11:11:51;;;;;;;6.18;4.63;;;;;;;;;;4991550;28;20038;-71
2023/06/30 11:14:32;;;;;;;11.23;5.10;;;;;;;;;;4992217;28;20030;-71
2023/06/30 11:17:07;;;;;;;6.05;4.22;;;;;;;;;;4992110;28;20037;-71
2023/06/30 11:19:36;;;;;;;6.18;4.88;;;;;;;;;;4991991;28;20045;-71
2023/06/30 11:22:23;;;;;;;7.07;4.93;;;;;;;;;;4991738;28;20106;-72
2023/06/30 11:24:49;;;;;;;9.73;5.15;;;;;;;;;;4992633;28;20132;-72
2023/06/30 11:27:15;;;;;;;10.45;4.60;;;;;;;;;;4998639;28;20057;-71
2023/06/30 11:29:41;;;;;;;7.50;4.97;;;;;;;;;;4990320;28;20404;-72
2023/06/30 11:32:07;;;;;;;7.72;4.88;;;;;;;;;;4991910;28;20391;-72
2023/06/30 11:34:33;;;;;;;6.35;4.45;;;;;;;;;;4992613;28;20038;-72
2023/06/30 11:37:04;;;;;;;7.10;4.95;;;;;;;;;;4991864;28;20109;-71
2023/06/30 11:39:30;;;;;;;7.68;5.00;;;;;;;;;;4991585;28;20030;-72
2023/06/30 11:41:56;;;;;;;9.10;5.13;;;;;;;;;;4991997;28;20369;-72
2023/06/30 11:44:22;;;;;;;7.57;4.90;;;;;;;;;;4974432;28;20369;-72
2023/06/30 11:46:48;;;;;;;7.32;4.97;;;;;;;;;;4992246;28;20015;-72
2023/06/30 11:49:14;;;;;;;6.10;4.60;;;;;;;;;;4991783;28;20046;-71
2023/06/30 11:51:40;;;;;;;6.60;4.78;;;;;;;;;;4992054;28;20106;-70
2023/06/30 11:54:06;;;;;;;7.43;5.70;;;;;;;;;;4992162;28;20031;-69
2023/06/30 11:56:33;;;;;;;10.80;5.55;;;;;;;;;;4991918;28;20472;-70
2023/06/30 11:58:59;;;;;;;8.35;4.18;;;;;;;;;;4991727;28;20440;-70
2023/06/30 12:01:25;;;;;;;7.25;4.55;;;;;;;;;;4991978;28;20046;-71
2023/06/30 12:04:07;;;;;;;8.15;5.07;;;;;;;;;;4992137;28;20038;-72
2023/06/30 12:06:35;;;;;;;5.43;4.20;;;;;;;;;;4991866;28;20068;-71
2023/06/30 12:09:03;;;;;;;7.05;4.60;;;;;;;;;;4992066;28;20103;-72
2023/06/30 12:11:32;;;;;;;6.63;4.70;;;;;;;;;;4974965;28;20046;-72
2023/06/30 12:13:58;;;;;;;6.18;4.60;;;;;;;;;;4992464;28;20499;-72
2023/06/30 12:16:37;;;;;;;7.82;5.30;;;;;;;;;;4992281;28;20078;-71
2023/06/30 12:19:06;;;;;;;10.32;5.22;;;;;;;;;;4992131;28;20042;-71
2023/06/30 12:21:33;;;;;;;9.95;5.50;;;;;;;;;;4991982;28;20360;-70
2023/06/30 12:24:00;;;;;;;6.88;5.43;;;;;;;;;;4991869;28;20228;-71
2023/06/30 12:26:26;;;;;;;8.20;5.65;;;;;;;;;;4991843;28;20050;-72
2023/06/30 12:28:52;;;;;;;7.18;5.28;;;;;;;;;;4991934;28;20081;-71
2023/06/30 12:31:23;;;;;;;7.85;5.82;;;;;;;;;;4989728;28;20052;-71
2023/06/30 12:33:55;;;;;;;7.93;5.67;;;;;;;;;;4989691;28;20046;-71
2023/06/30 12:36:21;;;;;;;8.43;5.18;;;;;;;;;;4989933;28;20121;-71
2023/06/30 12:38:47;;;;;;;8.27;6.00;;;;;;;;;;4990582;28;20113;-70
2023/06/30 12:41:13;;;;;;;10.13;5.82;;;;;;;;;;4993780;28;20042;-70
2023/06/30 12:43:39;;;;;;;7.75;5.85;;;;;;;;;;4993786;28;20072;-70
2023/06/30 12:46:05;;;;;;;8.48;5.93;;;;;;;;;;4993770;28;20499;-71
2023/06/30 12:48:31;;;;;;;8.63;5.82;;;;;;;;;;4993566;28;20049;-72
2023/06/30 12:50:57;;;;;;;8.60;5.65;;;;;;;;;;4993646;28;20472;-72
2023/06/30 12:53:23;;;;;;;8.77;5.85;;;;;;;;;;4993836;28;20034;-72
2023/06/30 12:55:49;;;;;;;9.18;6.00;;;;;;;;;;4993545;28;20504;-71
2023/06/30 12:58:16;;;;;;;9.70;6.05;;;;;;;;;;4994036;28;20026;-71
2023/06/30 13:00:41;;;;;;;9.27;6.05;;;;;;;;;;4993329;28;20041;-71
2023/06/30 13:03:10;;;;;;;9.32;5.90;;;;;;;;;;4993219;28;20026;-72
2023/06/30 13:05:36;;;;;;;8.55;5.70;;;;;;;;;;4993462;28;20049;-71
2023/06/30 13:08:02;;;;;;;9.25;5.80;;;;;;;;;;4991769;28;20030;-71
2023/06/30 13:10:28;;;;;;;8.35;5.05;;;;;;;;;;4993794;28;20065;-72
2023/06/30 13:12:53;;;;;;;7.13;5.22;;;;;;;;;;4994623;28;20050;-70
2023/06/30 13:15:20;;;;;;;6.63;5.22;;;;;;;;;;4994599;28;20467;-70
2023/06/30 13:17:46;;;;;;;6.88;5.22;;;;;;;;;;4994522;28;20105;-70
2023/06/30 13:20:12;;;;;;;8.82;5.80;;;;;;;;;;4994648;28;20048;-71
2023/06/30 13:22:37;;;;;;;8.52;5.60;;;;;;;;;;4994641;28;20018;-71
2023/06/30 13:25:03;;;;;;;8.10;5.28;;;;;;;;;;4994484;28;20038;-72
2023/06/30 13:27:29;;;;;;;8.85;6.05;;;;;;;;;;4994531;28;20396;-70
2023/06/30 13:29:56;;;;;;;8.80;5.40;;;;;;;;;;4994260;28;20045;-71
2023/06/30 13:32:22;;;;;;;6.68;5.10;;;;;;;;;;4994396;28;20081;-73
2023/06/30 13:34:48;;;;;;;7.40;5.05;;;;;;;;;;4994391;28;20073;-71
2023/06/30 13:37:14;;;;;;;8.52;5.43;;;;;;;;;;4994848;28;20384;-72
2023/06/30 13:39:40;;;;;;;7.70;4.85;;;;;;;;;;4995033;28;20030;-72
2023/06/30 13:42:06;;;;;;;6.75;5.15;;;;;;;;;;4994419;28;20372;-72
2023/06/30 13:44:33;;;;;;;7.28;5.20;;;;;;;;;;4994376;28;20038;-72
2023/06/30 13:46:59;;;;;;;7.38;5.30;;;;;;;;;;4999488;28;20013;-73
2023/06/30 13:49:25;;;;;;;9.88;5.75;;;;;;;;;;4995853;28;20042;-73
2023/06/30 13:51:51;;;;;;;8.02;4.57;;;;;;;;;;4993870;28;20125;-74
2023/06/30 13:54:17;;;;;;;9.20;5.70;;;;;;;;;;4993828;28;20079;-73
2023/06/30 13:56:43;;;;;;;8.35;5.10;;;;;;;;;;4993509;28;20030;-72
2023/06/30 13:59:09;;;;;;;5.60;4.63;;;;;;;;;;4992799;28;20459;-72
2023/06/30 14:01:35;;;;;;;8.02;5.07;;;;;;;;;;4993324;28;20098;-72
2023/06/30 14:04:01;;;;;;;6.55;5.45;;;;;;;;;;4993535;28;20030;-72
2023/06/30 14:06:27;;;;;;;7.05;5.00;;;;;;;;;;4993480;28;20066;-71
2023/06/30 14:08:53;;;;;;;6.40;4.97;;;;;;;;;;4993440;28;20123;-73
2023/06/30 14:11:19;;;;;;;6.43;4.97;;;;;;;;;;4992147;28;20018;-71
2023/06/30 14:13:45;;;;;;;6.82;5.05;;;;;;;;;;4993529;28;20400;-73
2023/06/30 14:16:11;;;;;;;8.50;5.13;;;;;;;;;;4996155;28;20030;-71
2023/06/30 14:18:36;;;;;;;7.22;5.00;;;;;;;;;;4976482;28;20042;-72
2023/06/30 14:21:03;;;;;;;8.10;5.05;;;;;;;;;;4987203;28;20085;-72
2023/06/30 14:23:29;;;;;;;9.75;5.95;;;;;;;;;;4992058;28;20034;-72
2023/06/30 14:25:55;;;;;;;7.15;4.97;;;;;;;;;;4993449;28;20100;-72
2023/06/30 14:28:20;;;;;;;11.35;5.15;;;;;;;;;;4992886;28;20502;-74
2023/06/30 14:30:46;;;;;;;7.00;5.03;;;;;;;;;;4993119;28;20029;-73
2023/06/30 14:33:12;;;;;;;6.07;4.50;;;;;;;;;;4996405;28;20553;-73
2023/06/30 14:35:38;;;;;;;9.57;4.65;;;;;;;;;;4993182;28;20023;-72
2023/06/30 14:38:04;;;;;;;8.52;4.68;;;;;;;;;;4993076;28;20093;-73
2023/06/30 14:40:30;;;;;;;7.25;4.68;;;;;;;;;;4992901;28;20027;-73
2023/06/30 14:43:00;;;;;;;7.05;4.63;;;;;;;;;;4992312;28;20034;-74
2023/06/30 14:45:30;;;;;;;7.35;4.53;;;;;;;;;;4992219;28;20129;-72
2023/06/30 14:47:57;;;;;;;8.48;4.85;;;;;;;;;;4992813;28;20122;-74
2023/06/30 14:50:24;;;;;;;7.43;4.93;;;;;;;;;;4992494;28;20065;-71
2023/06/30 14:52:50;;;;;;;7.82;4.50;;;;;;;;;;4992494;28;20042;-74
2023/06/30 14:55:16;;;;;;;8.35;4.78;;;;;;;;;;4992429;28;20073;-73
2023/06/30 14:57:42;;;;;;;8.15;4.00;;;;;;;;;;4992254;28;20405;-74
2023/06/30 15:00:09;;;;;;;6.20;4.63;;;;;;;;;;4991585;28;20061;-74
2023/06/30 15:02:35;;;;;;;6.80;4.63;;;;;;;;;;4991718;28;20431;-72
2023/06/30 15:05:01;;;;;;;7.82;4.60;;;;;;;;;;4991170;28;20026;-73
2023/06/30 15:07:27;;;;;;;7.03;4.80;;;;;;;;;;4991964;28;20101;-73
2023/06/30 15:09:52;;;;;;;6.28;3.95;;;;;;;;;;4991940;28;20464;-72